sensor_id;sensor_type;location;lat;lon;timestamp;P1;durP1;ratioP1;P2;durP2;ratioP2
62030;SDS011;62035;52.094;5.112;2023-04-01T00:00:37;36.33;;;12.63;;
62030;SDS011;62035;52.094;5.112;2023-04-01T00:03:04;36.17;;;12.38;;
62030;SDS011;62035;52.094;5.112;2023-04-01T00:05:32;38.47;;;12.82;;
62030;SDS011;62035;52.094;5.112;2023-04-01T00:08:02;41.75;;;14.13;;
62030;SDS011;62035;52.094;5.112;2023-04-01T00:10:29;39.85;;;13.82;;
62030;SDS011;62035;52.094;5.112;2023-04-01T00:12:57;30.58;;;12.65;;
62030;SDS011;62035;52.094;5.112;2023-04-01T00:15:25;30.08;;;12.02;;
62030;SDS011;62035;52.094;5.112;2023-04-01T00:17:52;36.10;;;12.65;;
62030;SDS011;62035;52.094;5.112;2023-04-01T00:20:20;26.85;;;10.80;;
62030;SDS011;62035;52.094;5.112;2023-04-01T00:22:48;25.73;;;11.45;;
62030;SDS011;62035;52.094;5.112;2023-04-01T00:25:18;31.65;;;11.57;;
62030;SDS011;62035;52.094;5.112;2023-04-01T00:27:45;27.83;;;11.95;;
62030;SDS011;62035;52.094;5.112;2023-04-01T00:30:13;29.48;;;12.63;;
62030;SDS011;62035;52.094;5.112;2023-04-01T00:32:41;30.13;;;11.48;;
62030;SDS011;62035;52.094;5.112;2023-04-01T00:35:09;35.60;;;11.80;;
62030;SDS011;62035;52.094;5.112;2023-04-01T00:37:38;30.65;;;13.25;;
62030;SDS011;62035;52.094;5.112;2023-04-01T00:40:06;33.15;;;12.88;;
62030;SDS011;62035;52.094;5.112;2023-04-01T00:42:52;24.33;;;12.73;;
62030;SDS011;62035;52.094;5.112;2023-04-01T00:45:24;27.27;;;12.50;;
62030;SDS011;62035;52.094;5.112;2023-04-01T00:47:58;32.50;;;12.35;;
62030;SDS011;62035;52.094;5.112;2023-04-01T00:50:30;31.95;;;12.10;;
62030;SDS011;62035;52.094;5.112;2023-04-01T00:53:01;33.85;;;12.93;;
62030;SDS011;62035;52.094;5.112;2023-04-01T00:55:33;28.75;;;12.77;;
62030;SDS011;62035;52.094;5.112;2023-04-01T00:58:07;22.38;;;11.52;;
62030;SDS011;62035;52.094;5.112;2023-04-01T01:00:40;26.83;;;11.15;;
62030;SDS011;62035;52.094;5.112;2023-04-01T01:03:09;27.40;;;10.93;;
62030;SDS011;62035;52.094;5.112;2023-04-01T01:05:42;26.98;;;10.65;;
62030;SDS011;62035;52.094;5.112;2023-04-01T01:08:33;30.73;;;11.23;;
62030;SDS011;62035;52.094;5.112;2023-04-01T01:11:22;25.75;;;11.10;;
62030;SDS011;62035;52.094;5.112;2023-04-01T01:13:57;30.35;;;11.05;;
62030;SDS011;62035;52.094;5.112;2023-04-01T01:16:36;22.63;;;10.35;;
62030;SDS011;62035;52.094;5.112;2023-04-01T01:19:16;23.48;;;10.05;;
62030;SDS011;62035;52.094;5.112;2023-04-01T01:22:29;23.98;;;9.85;;
62030;SDS011;62035;52.094;5.112;2023-04-01T01:25:18;19.77;;;9.02;;
62030;SDS011;62035;52.094;5.112;2023-04-01T01:28:08;22.48;;;8.82;;
62030;SDS011;62035;52.094;5.112;2023-04-01T01:31:02;18.48;;;8.80;;
62030;SDS011;62035;52.094;5.112;2023-04-01T01:33:56;25.42;;;9.00;;
62030;SDS011;62035;52.094;5.112;2023-04-01T01:36:40;23.17;;;9.75;;
62030;SDS011;62035;52.094;5.112;2023-04-01T01:39:13;21.60;;;8.38;;
62030;SDS011;62035;52.094;5.112;2023-04-01T01:41:43;17.67;;;8.80;;
62030;SDS011;62035;52.094;5.112;2023-04-01T01:44:16;22.23;;;8.90;;
62030;SDS011;62035;52.094;5.112;2023-04-01T01:46:45;24.42;;;8.35;;
62030;SDS011;62035;52.094;5.112;2023-04-01T01:49:14;24.63;;;9.00;;
62030;SDS011;62035;52.094;5.112;2023-04-01T01:51:46;23.50;;;8.75;;
62030;SDS011;62035;52.094;5.112;2023-04-01T01:54:14;20.10;;;7.53;;
62030;SDS011;62035;52.094;5.112;2023-04-01T01:56:43;22.05;;;8.15;;
62030;SDS011;62035;52.094;5.112;2023-04-01T01:59:16;20.08;;;7.78;;
62030;SDS011;62035;52.094;5.112;2023-04-01T02:01:49;27.08;;;8.65;;
62030;SDS011;62035;52.094;5.112;2023-04-01T02:04:21;19.10;;;8.48;;
62030;SDS011;62035;52.094;5.112;2023-04-01T02:06:52;23.98;;;8.05;;
62030;SDS011;62035;52.094;5.112;2023-04-01T02:09:27;20.63;;;7.93;;
62030;SDS011;62035;52.094;5.112;2023-04-01T02:11:56;20.55;;;7.93;;
62030;SDS011;62035;52.094;5.112;2023-04-01T02:14:28;19.27;;;7.72;;
62030;SDS011;62035;52.094;5.112;2023-04-01T02:17:08;20.73;;;7.43;;
62030;SDS011;62035;52.094;5.112;2023-04-01T02:19:42;23.52;;;8.73;;
62030;SDS011;62035;52.094;5.112;2023-04-01T02:22:20;19.52;;;7.15;;
62030;SDS011;62035;52.094;5.112;2023-04-01T02:24:52;19.05;;;7.50;;
62030;SDS011;62035;52.094;5.112;2023-04-01T02:27:26;24.55;;;8.13;;
62030;SDS011;62035;52.094;5.112;2023-04-01T02:29:55;19.02;;;7.90;;
62030;SDS011;62035;52.094;5.112;2023-04-01T02:32:22;24.55;;;7.90;;
62030;SDS011;62035;52.094;5.112;2023-04-01T02:34:51;20.20;;;8.10;;
62030;SDS011;62035;52.094;5.112;2023-04-01T02:37:21;21.20;;;6.97;;
62030;SDS011;62035;52.094;5.112;2023-04-01T02:39:49;14.25;;;7.05;;
62030;SDS011;62035;52.094;5.112;2023-04-01T02:42:17;17.10;;;6.47;;
62030;SDS011;62035;52.094;5.112;2023-04-01T02:44:45;15.43;;;6.47;;
62030;SDS011;62035;52.094;5.112;2023-04-01T02:47:12;15.70;;;5.90;;
62030;SDS011;62035;52.094;5.112;2023-04-01T02:49:40;13.98;;;5.65;;
62030;SDS011;62035;52.094;5.112;2023-04-01T02:52:08;15.55;;;6.07;;
62030;SDS011;62035;52.094;5.112;2023-04-01T02:54:37;11.07;;;5.00;;
62030;SDS011;62035;52.094;5.112;2023-04-01T02:57:05;14.25;;;5.50;;
62030;SDS011;62035;52.094;5.112;2023-04-01T02:59:33;11.68;;;5.60;;
62030;SDS011;62035;52.094;5.112;2023-04-01T03:02:00;13.27;;;5.93;;
62030;SDS011;62035;52.094;5.112;2023-04-01T03:04:28;15.27;;;5.97;;
62030;SDS011;62035;52.094;5.112;2023-04-01T03:06:55;15.32;;;6.57;;
62030;SDS011;62035;52.094;5.112;2023-04-01T03:09:23;12.35;;;6.28;;
62030;SDS011;62035;52.094;5.112;2023-04-01T03:11:52;14.90;;;6.88;;
62030;SDS011;62035;52.094;5.112;2023-04-01T03:14:20;15.45;;;7.00;;
62030;SDS011;62035;52.094;5.112;2023-04-01T03:16:47;15.52;;;7.43;;
62030;SDS011;62035;52.094;5.112;2023-04-01T03:19:15;19.00;;;7.43;;
62030;SDS011;62035;52.094;5.112;2023-04-01T03:21:43;13.68;;;7.13;;
62030;SDS011;62035;52.094;5.112;2023-04-01T03:24:10;19.92;;;7.90;;
62030;SDS011;62035;52.094;5.112;2023-04-01T03:26:38;18.17;;;7.93;;
62030;SDS011;62035;52.094;5.112;2023-04-01T03:29:07;17.52;;;8.15;;
62030;SDS011;62035;52.094;5.112;2023-04-01T03:31:34;19.70;;;8.40;;
62030;SDS011;62035;52.094;5.112;2023-04-01T03:34:02;19.17;;;7.30;;
62030;SDS011;62035;52.094;5.112;2023-04-01T03:36:30;20.27;;;7.78;;
62030;SDS011;62035;52.094;5.112;2023-04-01T03:38:57;18.15;;;7.10;;
62030;SDS011;62035;52.094;5.112;2023-04-01T03:41:25;19.42;;;7.70;;
62030;SDS011;62035;52.094;5.112;2023-04-01T03:43:53;18.17;;;8.00;;
62030;SDS011;62035;52.094;5.112;2023-04-01T03:46:22;20.05;;;8.45;;
62030;SDS011;62035;52.094;5.112;2023-04-01T03:48:50;18.27;;;8.25;;
62030;SDS011;62035;52.094;5.112;2023-04-01T03:51:17;17.80;;;8.10;;
62030;SDS011;62035;52.094;5.112;2023-04-01T03:53:45;16.83;;;8.05;;
62030;SDS011;62035;52.094;5.112;2023-04-01T03:56:12;16.30;;;8.80;;
62030;SDS011;62035;52.094;5.112;2023-04-01T03:58:40;19.60;;;9.10;;
62030;SDS011;62035;52.094;5.112;2023-04-01T04:01:14;17.48;;;8.70;;
62030;SDS011;62035;52.094;5.112;2023-04-01T04:03:45;17.70;;;8.80;;
62030;SDS011;62035;52.094;5.112;2023-04-01T04:06:15;24.73;;;9.35;;
62030;SDS011;62035;52.094;5.112;2023-04-01T04:08:45;21.92;;;9.82;;
62030;SDS011;62035;52.094;5.112;2023-04-01T04:11:13;24.30;;;9.68;;
62030;SDS011;62035;52.094;5.112;2023-04-01T04:13:40;27.30;;;10.73;;
62030;SDS011;62035;52.094;5.112;2023-04-01T04:16:09;24.52;;;8.88;;
62030;SDS011;62035;52.094;5.112;2023-04-01T04:18:37;20.65;;;8.80;;
62030;SDS011;62035;52.094;5.112;2023-04-01T04:21:06;22.92;;;9.77;;
62030;SDS011;62035;52.094;5.112;2023-04-01T04:23:34;22.60;;;9.13;;
62030;SDS011;62035;52.094;5.112;2023-04-01T04:26:03;23.13;;;9.50;;
62030;SDS011;62035;52.094;5.112;2023-04-01T04:28:34;22.17;;;9.10;;
62030;SDS011;62035;52.094;5.112;2023-04-01T04:31:01;22.42;;;8.73;;
62030;SDS011;62035;52.094;5.112;2023-04-01T04:33:30;19.88;;;8.80;;
62030;SDS011;62035;52.094;5.112;2023-04-01T04:35:58;18.35;;;8.50;;
62030;SDS011;62035;52.094;5.112;2023-04-01T04:38:28;18.25;;;8.73;;
62030;SDS011;62035;52.094;5.112;2023-04-01T04:40:56;20.13;;;9.10;;
62030;SDS011;62035;52.094;5.112;2023-04-01T04:43:23;20.33;;;8.10;;
62030;SDS011;62035;52.094;5.112;2023-04-01T04:45:51;19.90;;;8.73;;
62030;SDS011;62035;52.094;5.112;2023-04-01T04:48:18;18.23;;;7.93;;
62030;SDS011;62035;52.094;5.112;2023-04-01T04:50:46;16.23;;;7.38;;
62030;SDS011;62035;52.094;5.112;2023-04-01T04:53:17;19.27;;;8.15;;
62030;SDS011;62035;52.094;5.112;2023-04-01T04:55:48;17.65;;;8.82;;
62030;SDS011;62035;52.094;5.112;2023-04-01T04:58:17;18.85;;;8.40;;
62030;SDS011;62035;52.094;5.112;2023-04-01T05:00:45;18.45;;;9.15;;
62030;SDS011;62035;52.094;5.112;2023-04-01T05:03:13;19.55;;;8.75;;
62030;SDS011;62035;52.094;5.112;2023-04-01T05:05:47;22.45;;;9.25;;
62030;SDS011;62035;52.094;5.112;2023-04-01T05:08:17;20.95;;;10.00;;
62030;SDS011;62035;52.094;5.112;2023-04-01T05:10:45;20.05;;;9.30;;
62030;SDS011;62035;52.094;5.112;2023-04-01T05:13:14;19.42;;;9.10;;
62030;SDS011;62035;52.094;5.112;2023-04-01T05:15:41;23.25;;;8.85;;
62030;SDS011;62035;52.094;5.112;2023-04-01T05:18:09;20.50;;;9.55;;
62030;SDS011;62035;52.094;5.112;2023-04-01T05:20:37;19.60;;;9.50;;
62030;SDS011;62035;52.094;5.112;2023-04-01T05:23:04;21.60;;;9.60;;
62030;SDS011;62035;52.094;5.112;2023-04-01T05:25:32;19.35;;;9.00;;
62030;SDS011;62035;52.094;5.112;2023-04-01T05:27:59;16.25;;;9.18;;
62030;SDS011;62035;52.094;5.112;2023-04-01T05:30:28;17.73;;;8.90;;
62030;SDS011;62035;52.094;5.112;2023-04-01T05:32:56;17.90;;;9.27;;
62030;SDS011;62035;52.094;5.112;2023-04-01T05:35:24;20.23;;;9.88;;
62030;SDS011;62035;52.094;5.112;2023-04-01T05:37:51;18.33;;;9.75;;
62030;SDS011;62035;52.094;5.112;2023-04-01T05:40:19;18.45;;;10.35;;
62030;SDS011;62035;52.094;5.112;2023-04-01T05:42:47;17.63;;;9.85;;
62030;SDS011;62035;52.094;5.112;2023-04-01T05:45:14;21.13;;;9.73;;
62030;SDS011;62035;52.094;5.112;2023-04-01T05:47:43;22.90;;;8.82;;
62030;SDS011;62035;52.094;5.112;2023-04-01T05:50:11;18.98;;;9.73;;
62030;SDS011;62035;52.094;5.112;2023-04-01T05:52:39;16.63;;;8.80;;
62030;SDS011;62035;52.094;5.112;2023-04-01T05:55:07;19.73;;;9.07;;
62030;SDS011;62035;52.094;5.112;2023-04-01T05:57:36;22.00;;;9.18;;
62030;SDS011;62035;52.094;5.112;2023-04-01T06:00:04;15.32;;;8.80;;
62030;SDS011;62035;52.094;5.112;2023-04-01T06:02:33;19.08;;;9.13;;
62030;SDS011;62035;52.094;5.112;2023-04-01T06:05:09;20.58;;;9.43;;
62030;SDS011;62035;52.094;5.112;2023-04-01T06:07:43;20.20;;;8.75;;
62030;SDS011;62035;52.094;5.112;2023-04-01T06:10:14;18.70;;;9.75;;
62030;SDS011;62035;52.094;5.112;2023-04-01T06:12:45;18.70;;;9.35;;
62030;SDS011;62035;52.094;5.112;2023-04-01T06:15:25;20.92;;;9.43;;
62030;SDS011;62035;52.094;5.112;2023-04-01T06:18:16;23.48;;;9.30;;
62030;SDS011;62035;52.094;5.112;2023-04-01T06:21:26;19.92;;;8.48;;
62030;SDS011;62035;52.094;5.112;2023-04-01T06:24:43;17.35;;;8.25;;
62030;SDS011;62035;52.094;5.112;2023-04-01T06:27:42;16.65;;;8.40;;
62030;SDS011;62035;52.094;5.112;2023-04-01T06:30:38;19.08;;;8.48;;
62030;SDS011;62035;52.094;5.112;2023-04-01T06:33:15;17.98;;;7.90;;
62030;SDS011;62035;52.094;5.112;2023-04-01T06:36:27;16.15;;;7.90;;
62030;SDS011;62035;52.094;5.112;2023-04-01T06:39:19;23.52;;;9.52;;
62030;SDS011;62035;52.094;5.112;2023-04-01T06:42:18;18.85;;;9.43;;
62030;SDS011;62035;52.094;5.112;2023-04-01T06:45:04;22.23;;;9.52;;
62030;SDS011;62035;52.094;5.112;2023-04-01T06:47:58;23.02;;;11.20;;
62030;SDS011;62035;52.094;5.112;2023-04-01T06:50:50;25.33;;;11.27;;
62030;SDS011;62035;52.094;5.112;2023-04-01T06:53:31;28.42;;;11.63;;
62030;SDS011;62035;52.094;5.112;2023-04-01T06:56:08;29.17;;;13.07;;
62030;SDS011;62035;52.094;5.112;2023-04-01T06:58:41;28.35;;;12.18;;
62030;SDS011;62035;52.094;5.112;2023-04-01T07:01:17;28.52;;;12.32;;
62030;SDS011;62035;52.094;5.112;2023-04-01T07:03:49;31.38;;;12.98;;
62030;SDS011;62035;52.094;5.112;2023-04-01T07:06:25;30.58;;;13.27;;
62030;SDS011;62035;52.094;5.112;2023-04-01T07:09:00;26.02;;;12.18;;
62030;SDS011;62035;52.094;5.112;2023-04-01T07:11:35;27.45;;;13.00;;
62030;SDS011;62035;52.094;5.112;2023-04-01T07:14:06;26.38;;;13.13;;
62030;SDS011;62035;52.094;5.112;2023-04-01T07:16:47;30.08;;;11.65;;
62030;SDS011;62035;52.094;5.112;2023-04-01T07:19:22;29.15;;;12.15;;
62030;SDS011;62035;52.094;5.112;2023-04-01T07:21:58;25.67;;;11.23;;
62030;SDS011;62035;52.094;5.112;2023-04-01T07:24:33;31.83;;;12.07;;
62030;SDS011;62035;52.094;5.112;2023-04-01T07:27:05;28.52;;;12.13;;
62030;SDS011;62035;52.094;5.112;2023-04-01T07:29:37;28.25;;;11.48;;
62030;SDS011;62035;52.094;5.112;2023-04-01T07:32:19;24.95;;;11.38;;
62030;SDS011;62035;52.094;5.112;2023-04-01T07:35:06;22.23;;;10.68;;
62030;SDS011;62035;52.094;5.112;2023-04-01T07:37:46;21.60;;;9.05;;
62030;SDS011;62035;52.094;5.112;2023-04-01T07:40:37;20.38;;;9.30;;
62030;SDS011;62035;52.094;5.112;2023-04-01T07:43:22;18.27;;;8.82;;
62030;SDS011;62035;52.094;5.112;2023-04-01T07:46:09;23.55;;;9.57;;
62030;SDS011;62035;52.094;5.112;2023-04-01T07:48:57;21.27;;;9.43;;
62030;SDS011;62035;52.094;5.112;2023-04-01T07:51:36;23.50;;;9.77;;
62030;SDS011;62035;52.094;5.112;2023-04-01T07:54:16;25.70;;;10.57;;
62030;SDS011;62035;52.094;5.112;2023-04-01T07:56:56;26.88;;;10.05;;
62030;SDS011;62035;52.094;5.112;2023-04-01T07:59:37;27.27;;;10.48;;
62030;SDS011;62035;52.094;5.112;2023-04-01T08:02:24;24.58;;;9.90;;
62030;SDS011;62035;52.094;5.112;2023-04-01T08:05:14;24.45;;;10.80;;
62030;SDS011;62035;52.094;5.112;2023-04-01T08:07:54;25.30;;;10.18;;
62030;SDS011;62035;52.094;5.112;2023-04-01T08:10:36;24.63;;;10.10;;
62030;SDS011;62035;52.094;5.112;2023-04-01T08:13:20;22.13;;;9.57;;
62030;SDS011;62035;52.094;5.112;2023-04-01T08:16:05;32.42;;;12.10;;
62030;SDS011;62035;52.094;5.112;2023-04-01T08:18:43;29.88;;;11.00;;
62030;SDS011;62035;52.094;5.112;2023-04-01T08:21:22;28.17;;;10.65;;
62030;SDS011;62035;52.094;5.112;2023-04-01T08:23:55;34.65;;;12.25;;
62030;SDS011;62035;52.094;5.112;2023-04-01T08:26:32;25.90;;;11.48;;
62030;SDS011;62035;52.094;5.112;2023-04-01T08:29:09;29.40;;;11.73;;
62030;SDS011;62035;52.094;5.112;2023-04-01T08:31:48;29.08;;;11.45;;
62030;SDS011;62035;52.094;5.112;2023-04-01T08:34:23;29.75;;;11.30;;
62030;SDS011;62035;52.094;5.112;2023-04-01T08:36:57;29.25;;;10.60;;
62030;SDS011;62035;52.094;5.112;2023-04-01T08:39:31;29.40;;;11.52;;
62030;SDS011;62035;52.094;5.112;2023-04-01T08:45:26;28.52;;;11.93;;
62030;SDS011;62035;52.094;5.112;2023-04-01T08:48:17;28.23;;;11.32;;
62030;SDS011;62035;52.094;5.112;2023-04-01T08:51:04;26.08;;;11.60;;
62030;SDS011;62035;52.094;5.112;2023-04-01T08:54:13;23.38;;;11.25;;
62030;SDS011;62035;52.094;5.112;2023-04-01T08:57:04;28.83;;;10.93;;
62030;SDS011;62035;52.094;5.112;2023-04-01T08:59:55;23.55;;;10.98;;
62030;SDS011;62035;52.094;5.112;2023-04-01T09:02:44;27.55;;;10.93;;
62030;SDS011;62035;52.094;5.112;2023-04-01T09:05:26;22.90;;;10.70;;
62030;SDS011;62035;52.094;5.112;2023-04-01T09:08:15;24.25;;;10.73;;
62030;SDS011;62035;52.094;5.112;2023-04-01T09:14:17;27.67;;;10.85;;
62030;SDS011;62035;52.094;5.112;2023-04-01T09:20:18;27.10;;;10.50;;
62030;SDS011;62035;52.094;5.112;2023-04-01T09:23:10;24.15;;;10.25;;
62030;SDS011;62035;52.094;5.112;2023-04-01T09:26:12;27.35;;;10.27;;
62030;SDS011;62035;52.094;5.112;2023-04-01T09:29:15;18.77;;;9.55;;
62030;SDS011;62035;52.094;5.112;2023-04-01T09:32:10;19.38;;;9.18;;
62030;SDS011;62035;52.094;5.112;2023-04-01T09:35:14;23.80;;;9.15;;
62030;SDS011;62035;52.094;5.112;2023-04-01T09:38:09;20.33;;;8.93;;
62030;SDS011;62035;52.094;5.112;2023-04-01T09:40:54;17.30;;;8.45;;
62030;SDS011;62035;52.094;5.112;2023-04-01T09:43:27;18.95;;;8.70;;
62030;SDS011;62035;52.094;5.112;2023-04-01T09:46:14;16.40;;;9.25;;
62030;SDS011;62035;52.094;5.112;2023-04-01T09:49:11;16.15;;;8.30;;
62030;SDS011;62035;52.094;5.112;2023-04-01T09:52:20;16.40;;;7.55;;
62030;SDS011;62035;52.094;5.112;2023-04-01T09:55:06;17.35;;;8.30;;
62030;SDS011;62035;52.094;5.112;2023-04-01T09:58:23;19.13;;;8.70;;
62030;SDS011;62035;52.094;5.112;2023-04-01T10:01:33;15.70;;;7.50;;
62030;SDS011;62035;52.094;5.112;2023-04-01T10:04:26;13.95;;;8.20;;
62030;SDS011;62035;52.094;5.112;2023-04-01T10:07:46;13.68;;;7.07;;
62030;SDS011;62035;52.094;5.112;2023-04-01T10:14:41;14.82;;;6.68;;
62030;SDS011;62035;52.094;5.112;2023-04-01T10:24:54;10.32;;;6.28;;
62030;SDS011;62035;52.094;5.112;2023-04-01T10:31:42;10.68;;;6.88;;
62030;SDS011;62035;52.094;5.112;2023-04-01T10:38:17;12.20;;;7.47;;
62030;SDS011;62035;52.094;5.112;2023-04-01T10:41:20;11.77;;;6.90;;
62030;SDS011;62035;52.094;5.112;2023-04-01T10:44:47;14.00;;;6.55;;
62030;SDS011;62035;52.094;5.112;2023-04-01T10:48:18;7.78;;;4.70;;
62030;SDS011;62035;52.094;5.112;2023-04-01T10:51:16;6.60;;;4.07;;
62030;SDS011;62035;52.094;5.112;2023-04-01T10:54:20;4.45;;;2.63;;
62030;SDS011;62035;52.094;5.112;2023-04-01T10:57:19;4.18;;;2.80;;
62030;SDS011;62035;52.094;5.112;2023-04-01T11:00:53;4.75;;;2.88;;
62030;SDS011;62035;52.094;5.112;2023-04-01T11:04:22;6.40;;;3.25;;
62030;SDS011;62035;52.094;5.112;2023-04-01T11:11:11;7.43;;;4.53;;
62030;SDS011;62035;52.094;5.112;2023-04-01T11:14:43;9.73;;;4.40;;
62030;SDS011;62035;52.094;5.112;2023-04-01T11:20:59;8.13;;;5.00;;
62030;SDS011;62035;52.094;5.112;2023-04-01T11:24:20;7.45;;;4.65;;
62030;SDS011;62035;52.094;5.112;2023-04-01T11:27:28;9.35;;;4.78;;
62030;SDS011;62035;52.094;5.112;2023-04-01T11:30:55;7.63;;;4.55;;
62030;SDS011;62035;52.094;5.112;2023-04-01T11:33:44;9.63;;;5.45;;
62030;SDS011;62035;52.094;5.112;2023-04-01T11:36:26;9.27;;;5.15;;
62030;SDS011;62035;52.094;5.112;2023-04-01T11:39:14;8.95;;;5.20;;
62030;SDS011;62035;52.094;5.112;2023-04-01T11:41:55;7.53;;;4.88;;
62030;SDS011;62035;52.094;5.112;2023-04-01T11:44:43;9.25;;;4.97;;
62030;SDS011;62035;52.094;5.112;2023-04-01T11:47:40;7.13;;;4.57;;
62030;SDS011;62035;52.094;5.112;2023-04-01T11:50:35;7.90;;;4.38;;
62030;SDS011;62035;52.094;5.112;2023-04-01T11:53:36;6.50;;;4.20;;
62030;SDS011;62035;52.094;5.112;2023-04-01T11:56:22;6.28;;;3.90;;
62030;SDS011;62035;52.094;5.112;2023-04-01T11:59:17;5.57;;;3.60;;
62030;SDS011;62035;52.094;5.112;2023-04-01T12:02:41;4.75;;;3.45;;
62030;SDS011;62035;52.094;5.112;2023-04-01T12:05:33;6.95;;;4.38;;
62030;SDS011;62035;52.094;5.112;2023-04-01T12:08:15;7.88;;;4.55;;
62030;SDS011;62035;52.094;5.112;2023-04-01T12:11:00;9.65;;;5.78;;
62030;SDS011;62035;52.094;5.112;2023-04-01T12:13:45;9.98;;;6.13;;
62030;SDS011;62035;52.094;5.112;2023-04-01T12:16:26;11.98;;;7.20;;
62030;SDS011;62035;52.094;5.112;2023-04-01T12:19:11;15.80;;;7.15;;
62030;SDS011;62035;52.094;5.112;2023-04-01T12:21:54;13.32;;;8.07;;
62030;SDS011;62035;52.094;5.112;2023-04-01T12:24:46;12.00;;;8.10;;
62030;SDS011;62035;52.094;5.112;2023-04-01T12:30:24;12.63;;;7.18;;
62030;SDS011;62035;52.094;5.112;2023-04-01T12:36:33;16.42;;;9.10;;
62030;SDS011;62035;52.094;5.112;2023-04-01T12:39:29;13.05;;;7.93;;
62030;SDS011;62035;52.094;5.112;2023-04-01T12:42:31;14.13;;;8.27;;
62030;SDS011;62035;52.094;5.112;2023-04-01T12:45:24;13.27;;;8.57;;
62030;SDS011;62035;52.094;5.112;2023-04-01T12:48:06;14.32;;;7.93;;
62030;SDS011;62035;52.094;5.112;2023-04-01T12:54:28;12.00;;;7.72;;
62030;SDS011;62035;52.094;5.112;2023-04-01T12:57:54;13.60;;;8.15;;
62030;SDS011;62035;52.094;5.112;2023-04-01T13:00:46;13.43;;;8.18;;
62030;SDS011;62035;52.094;5.112;2023-04-01T13:03:53;12.93;;;7.80;;
62030;SDS011;62035;52.094;5.112;2023-04-01T13:07:13;10.35;;;6.22;;
62030;SDS011;62035;52.094;5.112;2023-04-01T13:10:10;8.18;;;5.20;;
62030;SDS011;62035;52.094;5.112;2023-04-01T13:12:57;9.20;;;6.18;;
62030;SDS011;62035;52.094;5.112;2023-04-01T13:15:54;9.98;;;5.93;;
62030;SDS011;62035;52.094;5.112;2023-04-01T13:18:32;7.85;;;5.15;;
62030;SDS011;62035;52.094;5.112;2023-04-01T13:21:15;7.90;;;5.55;;
62030;SDS011;62035;52.094;5.112;2023-04-01T13:23:56;11.32;;;5.68;;
62030;SDS011;62035;52.094;5.112;2023-04-01T13:26:37;9.05;;;5.93;;
62030;SDS011;62035;52.094;5.112;2023-04-01T13:29:21;11.50;;;5.45;;
62030;SDS011;62035;52.094;5.112;2023-04-01T13:32:00;9.95;;;5.78;;
62030;SDS011;62035;52.094;5.112;2023-04-01T13:34:47;7.28;;;5.20;;
62030;SDS011;62035;52.094;5.112;2023-04-01T13:37:38;6.70;;;5.05;;
62030;SDS011;62035;52.094;5.112;2023-04-01T13:40:26;6.57;;;4.43;;
62030;SDS011;62035;52.094;5.112;2023-04-01T13:43:08;7.90;;;5.10;;
62030;SDS011;62035;52.094;5.112;2023-04-01T13:45:49;9.93;;;5.03;;
62030;SDS011;62035;52.094;5.112;2023-04-01T13:48:45;7.40;;;5.18;;
62030;SDS011;62035;52.094;5.112;2023-04-01T13:54:58;7.13;;;4.57;;
62030;SDS011;62035;52.094;5.112;2023-04-01T13:57:51;11.45;;;4.85;;
62030;SDS011;62035;52.094;5.112;2023-04-01T14:00:52;7.18;;;4.47;;
62030;SDS011;62035;52.094;5.112;2023-04-01T14:07:06;8.15;;;5.35;;
62030;SDS011;62035;52.094;5.112;2023-04-01T14:10:03;6.93;;;4.38;;
62030;SDS011;62035;52.094;5.112;2023-04-01T14:12:44;9.35;;;4.82;;
62030;SDS011;62035;52.094;5.112;2023-04-01T14:15:33;9.18;;;5.00;;
62030;SDS011;62035;52.094;5.112;2023-04-01T14:21:21;9.77;;;5.85;;
62030;SDS011;62035;52.094;5.112;2023-04-01T14:24:08;9.65;;;6.20;;
62030;SDS011;62035;52.094;5.112;2023-04-01T14:27:04;8.73;;;6.30;;
62030;SDS011;62035;52.094;5.112;2023-04-01T14:30:17;9.40;;;6.10;;
62030;SDS011;62035;52.094;5.112;2023-04-01T14:33:05;11.65;;;7.35;;
62030;SDS011;62035;52.094;5.112;2023-04-01T14:35:56;11.32;;;6.93;;
62030;SDS011;62035;52.094;5.112;2023-04-01T14:38:43;11.25;;;7.60;;
62030;SDS011;62035;52.094;5.112;2023-04-01T14:41:29;12.93;;;7.97;;
62030;SDS011;62035;52.094;5.112;2023-04-01T14:44:23;15.80;;;8.60;;
62030;SDS011;62035;52.094;5.112;2023-04-01T14:47:29;11.85;;;7.70;;
62030;SDS011;62035;52.094;5.112;2023-04-01T14:50:13;14.02;;;8.05;;
62030;SDS011;62035;52.094;5.112;2023-04-01T14:55:31;12.38;;;7.55;;
62030;SDS011;62035;52.094;5.112;2023-04-01T14:58:11;12.00;;;7.10;;
62030;SDS011;62035;52.094;5.112;2023-04-01T15:00:48;10.82;;;7.25;;
62030;SDS011;62035;52.094;5.112;2023-04-01T15:03:30;12.57;;;7.45;;
62030;SDS011;62035;52.094;5.112;2023-04-01T15:06:19;12.40;;;7.72;;
62030;SDS011;62035;52.094;5.112;2023-04-01T15:09:14;12.90;;;7.57;;
62030;SDS011;62035;52.094;5.112;2023-04-01T15:11:57;11.63;;;7.22;;
62030;SDS011;62035;52.094;5.112;2023-04-01T15:17:55;14.15;;;7.30;;
62030;SDS011;62035;52.094;5.112;2023-04-01T15:20:43;13.80;;;7.68;;
62030;SDS011;62035;52.094;5.112;2023-04-01T15:23:40;9.13;;;6.78;;
62030;SDS011;62035;52.094;5.112;2023-04-01T15:26:29;13.82;;;6.95;;
62030;SDS011;62035;52.094;5.112;2023-04-01T15:32:32;10.93;;;7.10;;
62030;SDS011;62035;52.094;5.112;2023-04-01T15:35:19;9.43;;;6.70;;
62030;SDS011;62035;52.094;5.112;2023-04-01T15:38:04;10.13;;;6.95;;
62030;SDS011;62035;52.094;5.112;2023-04-01T15:40:45;9.85;;;6.60;;
62030;SDS011;62035;52.094;5.112;2023-04-01T15:43:24;8.82;;;6.32;;
62030;SDS011;62035;52.094;5.112;2023-04-01T15:46:15;9.65;;;6.18;;
62030;SDS011;62035;52.094;5.112;2023-04-01T15:49:09;10.70;;;6.35;;
62030;SDS011;62035;52.094;5.112;2023-04-01T15:52:03;9.38;;;6.22;;
62030;SDS011;62035;52.094;5.112;2023-04-01T15:54:49;7.72;;;5.65;;
62030;SDS011;62035;52.094;5.112;2023-04-01T15:57:33;10.02;;;6.13;;
62030;SDS011;62035;52.094;5.112;2023-04-01T16:00:21;7.33;;;5.00;;
62030;SDS011;62035;52.094;5.112;2023-04-01T16:03:02;7.80;;;5.60;;
62030;SDS011;62035;52.094;5.112;2023-04-01T16:05:51;7.57;;;5.20;;
62030;SDS011;62035;52.094;5.112;2023-04-01T16:08:45;8.73;;;6.03;;
62030;SDS011;62035;52.094;5.112;2023-04-01T16:11:37;8.30;;;5.45;;
62030;SDS011;62035;52.094;5.112;2023-04-01T16:14:22;8.50;;;5.78;;
62030;SDS011;62035;52.094;5.112;2023-04-01T16:17:09;9.48;;;5.47;;
62030;SDS011;62035;52.094;5.112;2023-04-01T16:19:59;9.80;;;5.95;;
62030;SDS011;62035;52.094;5.112;2023-04-01T16:22:33;9.95;;;6.55;;
62030;SDS011;62035;52.094;5.112;2023-04-01T16:25:18;7.30;;;5.38;;
62030;SDS011;62035;52.094;5.112;2023-04-01T16:28:02;7.07;;;4.65;;
62030;SDS011;62035;52.094;5.112;2023-04-01T16:30:46;6.15;;;4.45;;
62030;SDS011;62035;52.094;5.112;2023-04-01T16:33:24;5.43;;;3.63;;
62030;SDS011;62035;52.094;5.112;2023-04-01T16:36:09;7.13;;;3.45;;
62030;SDS011;62035;52.094;5.112;2023-04-01T16:38:49;5.70;;;3.28;;
62030;SDS011;62035;52.094;5.112;2023-04-01T16:41:24;4.68;;;3.20;;
62030;SDS011;62035;52.094;5.112;2023-04-01T16:44:08;7.47;;;3.15;;
62030;SDS011;62035;52.094;5.112;2023-04-01T16:46:45;4.13;;;2.70;;
62030;SDS011;62035;52.094;5.112;2023-04-01T16:49:27;2.53;;;1.95;;
62030;SDS011;62035;52.094;5.112;2023-04-01T16:52:13;3.20;;;2.35;;
62030;SDS011;62035;52.094;5.112;2023-04-01T16:54:47;3.25;;;2.10;;
62030;SDS011;62035;52.094;5.112;2023-04-01T16:57:26;3.30;;;2.17;;
62030;SDS011;62035;52.094;5.112;2023-04-01T17:00:14;3.08;;;2.15;;
62030;SDS011;62035;52.094;5.112;2023-04-01T17:02:57;4.03;;;2.58;;